Sider Lijun C — 2CTU4 — position and weather

sailwx.info

Track history (hours):
 
Tides and Currents Weather Stations Pressure Air Temp Water Temp Dewpoint Dewpoint Depression Visibility Wind Speed Wind Dir Waves Ship Positions

Sider Lijun C

Last reported at 2018-Feb-17 14:16 UTC. Time now 2018-Feb-20 04:13 UTC.
Position N 43°47' W 006°12'.

Length 108 m; draft 7.5 m.

Type: Cargo ship. MMSI: 235075699.

Date/timePositionNaut miles runAvg speedWind from/ knotsBaromVisibWave heightAir tempDewpointWater temp
2018-Feb-17 14:16N 43°47' W 006°12'3 9.5
2018-Feb-17 13:56N 43°47' W 006°08'4 9.3
2018-Feb-17 13:28N 43°46' W 006°02'4 9.2
2018-Feb-17 13:00N 43°46' W 005°56'4 9.1
2018-Feb-17 12:30N 43°45' W 005°50'4 9.0
2018-Feb-17 12:00N 43°45' W 005°43'4 8.9
2018-Feb-17 11:30N 43°45' W 005°37'5 9.2
2018-Feb-17 11:00N 43°44' W 005°31'5 9.2
2018-Feb-17 10:30N 43°44' W 005°25'5 9.2
2018-Feb-17 10:00N 43°43' W 005°18'5 9.2
2018-Feb-17 09:30N 43°43' W 005°12'5 9.1
2018-Feb-17 09:00N 43°43' W 005°06'5 9.0
2018-Feb-17 08:29N 43°42' W 004°59'49 8.6
2018-Feb-17 02:48N 43°38' W 003°52'3 8.8
2018-Feb-17 02:29N 43°38' W 003°48'4 8.7
2018-Feb-17 02:00N 43°37' W 003°43'4 8.3
2018-Feb-17 01:30N 43°37' W 003°37'4 8.2
2018-Feb-17 01:00N 43°37' W 003°31'4 8.0
2018-Feb-17 00:30N 43°37' W 003°26'6 8.3
2018-Feb-16 23:51N 43°36' W 003°18'3 8.6
2018-Feb-16 23:30N 43°36' W 003°14'5 8.9
2018-Feb-16 23:00N 43°36' W 003°08'4 8.6
2018-Feb-16 22:30N 43°35' W 003°02'4 8.7
2018-Feb-16 22:01N 43°35' W 002°56'4 8.8
2018-Feb-16 21:31N 43°35' W 002°50'5 9.1
2018-Feb-16 21:01N 43°35' W 002°44'5 9.2
2018-Feb-16 20:31N 43°34' W 002°37'5 9.1
2018-Feb-16 20:00N 43°34' W 002°31'5 9.1
2018-Feb-16 19:30N 43°34' W 002°25'5 9.2
2018-Feb-16 19:01N 43°33' W 002°19'5 9.4
2018-Feb-16 18:31N 43°33' W 002°12'5 9.3
2018-Feb-16 18:00N 43°33' W 002°06'5 9.5
2018-Feb-16 17:31N 43°33' W 001°59'5 9.6
2018-Feb-16 17:00N 43°32' W 001°53'5 9.5
2018-Feb-16 16:31N 43°32' W 001°46'5 9.4
2018-Feb-16 16:01N 43°33' W 001°39'4 8.6
2018-Feb-16 15:30N 43°32' W 001°34'3 4.3
2018-Feb-16 14:53N 43°32' W 001°30'0 0.0
2018-Feb-16 14:29N 43°32' W 001°30'0 0.0
2018-Feb-16 13:59N 43°32' W 001°30'0 0.0
2018-Feb-16 13:29N 43°32' W 001°30'0 0.0
2018-Feb-16 12:59N 43°32' W 001°30'0 0.0
2018-Feb-16 12:29N 43°32' W 001°30'0 0.0
2018-Feb-16 11:59N 43°32' W 001°30'0 0.0
2018-Feb-16 11:29N 43°32' W 001°30'0 0.0
2018-Feb-16 10:59N 43°32' W 001°30'0 0.0
2018-Feb-16 10:29N 43°32' W 001°30'0 0.0
2018-Feb-16 09:59N 43°32' W 001°30'0 0.0
2018-Feb-16 09:29N 43°32' W 001°30'0 0.0
2018-Feb-16 08:59N 43°32' W 001°30'0 0.0
2018-Feb-16 08:29N 43°32' W 001°30'0 0.0
2018-Feb-16 07:59N 43°32' W 001°30'0 0.0
2018-Feb-16 07:29N 43°32' W 001°30'0 0.0
2018-Feb-16 06:56N 43°32' W 001°30'0 0.0
2018-Feb-16 06:29N 43°32' W 001°30'0 0.0
2018-Feb-16 05:59N 43°32' W 001°30'0 0.0
2018-Feb-16 05:26N 43°32' W 001°30'0 0.0
2018-Feb-16 04:47N 43°32' W 001°30'0 0.0
2018-Feb-16 04:29N 43°32' W 001°30'0 0.0
2018-Feb-16 03:59N 43°32' W 001°30'0 0.0
2018-Feb-16 03:20N 43°32' W 001°30'0 0.0
2018-Feb-16 02:59N 43°32' W 001°30'0 0.0
2018-Feb-16 02:29N 43°32' W 001°30'0 0.0
2018-Feb-16 01:59N 43°32' W 001°30'0 0.0
2018-Feb-16 01:29N 43°32' W 001°30'0 0.0
2018-Feb-16 00:59N 43°32' W 001°30'0 0.0
2018-Feb-16 00:29N 43°32' W 001°30'0 0.0
2018-Feb-15 23:59N 43°32' W 001°30'0 0.0
2018-Feb-15 23:29N 43°32' W 001°30'0 0.0
2018-Feb-15 22:59N 43°32' W 001°30'0 0.0
2018-Feb-15 22:29N 43°32' W 001°30'0 0.0
2018-Feb-15 21:53N 43°32' W 001°30'0 0.0
2018-Feb-15 21:29N 43°32' W 001°30'0 0.0
2018-Feb-15 20:59N 43°32' W 001°30'0 0.0
2018-Feb-15 20:29N 43°32' W 001°30'0 0.0
2018-Feb-15 19:59N 43°32' W 001°30'0 0.0
2018-Feb-15 19:29N 43°32' W 001°30'0 0.0
2018-Feb-15 18:41N 43°32' W 001°30'0 0.0
2018-Feb-15 18:29N 43°32' W 001°30'0 0.0
2018-Feb-15 16:41N 43°32' W 001°30'0 0.0
2018-Feb-15 16:29N 43°32' W 001°30'0 0.0
2018-Feb-15 15:59N 43°32' W 001°30'0 0.0
2018-Feb-15 15:23N 43°32' W 001°30'0 0.0
2018-Feb-15 14:59N 43°32' W 001°30'0 0.0
2018-Feb-15 14:23N 43°32' W 001°30'0 0.0
2018-Feb-15 13:41N 43°32' W 001°30'0 0.0
2018-Feb-15 13:23N 43°32' W 001°30'0 0.0
2018-Feb-15 12:53N 43°32' W 001°30'0 0.0
2018-Feb-15 12:26N 43°32' W 001°30'0 0.0
2018-Feb-15 11:59N 43°32' W 001°30'0 0.0
2018-Feb-15 11:20N 43°32' W 001°30'0 0.0
2018-Feb-15 10:50N 43°32' W 001°30'0 0.0
2018-Feb-15 10:29N 43°32' W 001°30'0 0.0
2018-Feb-15 09:59N 43°32' W 001°30'0 0.0
2018-Feb-15 09:26N 43°32' W 001°30'0 0.0
2018-Feb-15 08:59N 43°32' W 001°30'0 0.0
2018-Feb-15 08:29N 43°32' W 001°30'0 0.0
2018-Feb-15 07:59N 43°32' W 001°30'0 0.0
2018-Feb-15 07:29N 43°32' W 001°30'0 0.0
2018-Feb-15 06:59N 43°32' W 001°30'0 0.0
2018-Feb-15 06:20N 43°32' W 001°30'0 0.0
2018-Feb-15 05:59N 43°32' W 001°30'0 0.0
2018-Feb-15 05:29N 43°32' W 001°30'0 0.0
2018-Feb-15 04:59N 43°32' W 001°30'0 0.0
2018-Feb-15 04:29N 43°32' W 001°30'0 0.0
2018-Feb-15 03:56N 43°32' W 001°30'0 0.0
2018-Feb-15 03:26N 43°32' W 001°30'0 0.0
2018-Feb-15 02:53N 43°32' W 001°30'0 0.0
2018-Feb-15 00:53N 43°32' W 001°30'0 0.0
2018-Feb-15 00:29N 43°32' W 001°30'0 0.0
2018-Feb-14 23:56N 43°32' W 001°30'0 0.0
2018-Feb-14 23:29N 43°32' W 001°30'0 0.0
2018-Feb-14 22:59N 43°32' W 001°30'0 0.0
2018-Feb-14 22:29N 43°32' W 001°30'0 0.0
2018-Feb-14 21:56N 43°32' W 001°30'0 0.0
2018-Feb-14 21:23N 43°32' W 001°30'0 0.0
2018-Feb-14 20:59N 43°32' W 001°30'0 0.0
2018-Feb-14 20:23N 43°32' W 001°30'0 0.0
2018-Feb-14 19:59N 43°32' W 001°30'0 0.0
2018-Feb-14 19:29N 43°32' W 001°30'0 0.0
2018-Feb-14 18:59N 43°32' W 001°30'0 0.0
2018-Feb-14 18:26N 43°32' W 001°30'0 0.0
2018-Feb-14 17:59N 43°32' W 001°30'0 0.0
2018-Feb-14 17:29N 43°32' W 001°30'0 0.0
2018-Feb-14 16:59N 43°32' W 001°30'0 0.0
2018-Feb-14 16:29N 43°32' W 001°30'0 0.0
2018-Feb-14 15:59N 43°32' W 001°30'0 0.0
2018-Feb-14 15:29N 43°32' W 001°30'0 0.0
2018-Feb-14 14:50N 43°32' W 001°30'0 0.0
2018-Feb-14 14:26N 43°32' W 001°30'0 0.0
2018-Feb-14 13:56N 43°32' W 001°30'0 0.0
2018-Feb-14 13:29N 43°32' W 001°30'0 0.0
2018-Feb-14 12:59N 43°32' W 001°30'0 0.0
2018-Feb-14 12:29N 43°32' W 001°30'0 0.0
2018-Feb-14 11:59N 43°32' W 001°30'0 0.0
2018-Feb-14 11:29N 43°32' W 001°30'0 0.0
2018-Feb-14 10:59N 43°32' W 001°30'0 0.0
2018-Feb-14 10:23N 43°32' W 001°30'0 1.0
2018-Feb-14 10:01N 43°32' W 001°31'4 7.8
2018-Feb-14 09:31N 43°33' W 001°36'5 9.0
2018-Feb-14 09:01N 43°33' W 001°42'5 9.0
2018-Feb-14 08:30N 43°33' W 001°48'4 7.7
2018-Feb-14 08:01N 43°33' W 001°54'4 8.2
2018-Feb-14 07:31N 43°33' W 001°59'4 8.2
2018-Feb-14 07:01N 43°33' W 002°05'4 8.6
2018-Feb-14 06:30N 43°33' W 002°11'4 8.5
2018-Feb-14 06:00N 43°33' W 002°17'4 8.0
2018-Feb-14 05:31N 43°34' W 002°22'4 7.9
2018-Feb-14 05:01N 43°34' W 002°28'4 8.0
2018-Feb-14 04:31N 43°34' W 002°33'4 8.5
2018-Feb-14 04:01N 43°35' W 002°39'5 9.0
2018-Feb-14 03:30N 43°35' W 002°45'4 8.7
2018-Feb-14 03:00N 43°36' W 002°51'5 8.5
2018-Feb-14 02:26N 43°36' W 002°58'3 8.1
2018-Feb-14 02:00N 43°37' W 003°02'4 8.1
2018-Feb-14 01:30N 43°37' W 003°08'4 8.2
2018-Feb-14 01:00N 43°37' W 003°14'8 8.9
2018-Feb-14 00:08N 43°37' W 003°24'1 8.1
2018-Feb-14 00:00N 43°37' W 003°26'4 7.8
2018-Feb-13 23:31N 43°37' W 003°31'4 8.2
2018-Feb-13 23:01N 43°37' W 003°37'4 8.4
2018-Feb-13 22:30N 43°37' W 003°43'49 8.1
2018-Feb-13 16:26N 43°41' W 004°50'3 8.1
2018-Feb-13 16:00N 43°42' W 004°55'4 7.9
2018-Feb-13 15:30N 43°42' W 005°01'4 8.0
2018-Feb-13 15:00N 43°43' W 005°06'4 8.2
2018-Feb-13 14:30N 43°43' W 005°12'4 8.2
2018-Feb-13 14:00N 43°43' W 005°18'510.5
2018-Feb-13 13:30N 43°44' W 005°25'611.7
2018-Feb-13 13:00N 43°44' W 005°33'1011.7
2018-Feb-13 12:09N 43°45' W 005°46'211.7
2018-Feb-13 11:58N 43°45' W 005°49'811.6
2018-Feb-13 11:18N 43°46' W 006°00'411.9
2018-Feb-13 10:58N 43°46' W 006°05'611.7
2018-Feb-13 10:29N 43°47' W 006°13'3 0.1
2018-Feb-11 20:31N 43°46' W 006°10'2 7.0
2018-Feb-11 20:18N 43°46' W 006°08'2 7.3
2018-Feb-11 19:58N 43°46' W 006°04'4 7.3
2018-Feb-11 19:29N 43°46' W 005°59'3 7.1
2018-Feb-11 19:00N 43°45' W 005°55'4 7.1
2018-Feb-11 18:30N 43°45' W 005°50'4 7.2
2018-Feb-11 18:00N 43°45' W 005°45'4 7.4
2018-Feb-11 17:31N 43°45' W 005°40'4 7.5
2018-Feb-11 17:01N 43°44' W 005°35'4 7.6
2018-Feb-11 16:29N 43°44' W 005°29'4 8.1
2018-Feb-11 16:01N 43°44' W 005°24'5 8.0
2018-Feb-11 15:21N 43°43' W 005°17'3 8.1
2018-Feb-11 14:57N 43°43' W 005°12'54 8.0
2018-Feb-11 08:07N 43°38' W 003°57'1 7.8
2018-Feb-11 08:00N 43°38' W 003°56'3 7.1
2018-Feb-11 07:30N 43°38' W 003°51'3 6.6
2018-Feb-11 07:00N 43°38' W 003°47'3 6.2
2018-Feb-11 06:31N 43°37' W 003°42'3 6.3
2018-Feb-11 06:00N 43°37' W 003°38'3 6.1
2018-Feb-11 05:31N 43°37' W 003°34'3 5.9
2018-Feb-11 05:00N 43°37' W 003°30'3 6.2
2018-Feb-11 04:31N 43°36' W 003°25'4 7.1
2018-Feb-11 04:01N 43°36' W 003°21'4 8.0
2018-Feb-11 03:30N 43°36' W 003°15'4 8.0
2018-Feb-11 03:01N 43°36' W 003°10'4 8.0
2018-Feb-11 02:31N 43°36' W 003°04'4 8.0
2018-Feb-11 02:01N 43°35' W 002°59'4 8.4
2018-Feb-11 01:30N 43°35' W 002°53'4 8.4
2018-Feb-11 01:01N 43°35' W 002°47'4 8.5
2018-Feb-11 00:31N 43°35' W 002°41'4 8.3
2018-Feb-11 00:00N 43°34' W 002°35'4 8.2
2018-Feb-10 23:30N 43°34' W 002°30'4 8.3
2018-Feb-10 23:01N 43°34' W 002°24'4 8.4
2018-Feb-10 22:30N 43°33' W 002°18'4 8.8
2018-Feb-10 22:01N 43°33' W 002°12'4 9.0
2018-Feb-10 21:30N 43°33' W 002°06'5 9.1
2018-Feb-10 21:01N 43°33' W 001°60'5 9.4
2018-Feb-10 20:31N 43°33' W 001°53'5 9.2
2018-Feb-10 19:59N 43°33' W 001°47'5 9.5
2018-Feb-10 19:31N 43°32' W 001°40'5 9.3
2018-Feb-10 19:01N 43°32' W 001°34'3 5.4
2018-Feb-10 18:28N 43°32' W 001°30'0 0.0
2018-Feb-10 17:31N 43°32' W 001°30'0 0.0
2018-Feb-10 17:25N 43°32' W 001°30'0 0.0
2018-Feb-10 16:58N 43°32' W 001°30'0 0.0
2018-Feb-10 16:28N 43°32' W 001°30'0 0.0
2018-Feb-10 15:58N 43°32' W 001°30'0 0.0
2018-Feb-10 15:25N 43°32' W 001°30'0 0.0
2018-Feb-10 14:49N 43°32' W 001°30'0 0.0
2018-Feb-10 14:28N 43°32' W 001°30'0 0.0
2018-Feb-10 13:58N 43°32' W 001°30'0 0.0
2018-Feb-10 13:28N 43°32' W 001°30'0 0.0
2018-Feb-10 12:58N 43°32' W 001°30'0 0.0
2018-Feb-10 12:28N 43°32' W 001°30'0 0.0
2018-Feb-10 11:58N 43°32' W 001°30'0 0.0
2018-Feb-10 11:28N 43°32' W 001°30'0 0.0
2018-Feb-10 10:58N 43°32' W 001°30'0 0.0
2018-Feb-10 10:28N 43°32' W 001°30'0 0.0
2018-Feb-10 09:58N 43°32' W 001°30'0 0.0
2018-Feb-10 09:25N 43°32' W 001°30'0 0.0
2018-Feb-10 08:58N 43°32' W 001°30'0 0.0
2018-Feb-10 08:28N 43°32' W 001°30'0 0.0
2018-Feb-10 07:58N 43°32' W 001°30'0 0.0
2018-Feb-10 07:28N 43°32' W 001°30'0 0.0
2018-Feb-10 06:58N 43°32' W 001°30'0 0.0
2018-Feb-10 06:28N 43°32' W 001°30'0 0.0
2018-Feb-10 05:58N 43°32' W 001°30'0 0.0
2018-Feb-10 05:28N 43°32' W 001°30'0 0.0
2018-Feb-10 04:58N 43°32' W 001°30'0 0.0
2018-Feb-10 04:28N 43°32' W 001°30'0 0.0
2018-Feb-10 03:55N 43°32' W 001°30'0 0.0
2018-Feb-10 03:28N 43°32' W 001°30'0 0.0
2018-Feb-10 02:58N 43°32' W 001°30'0 0.0
2018-Feb-10 02:28N 43°32' W 001°30'0 0.0
2018-Feb-10 01:58N 43°32' W 001°30'0 0.0
2018-Feb-10 01:28N 43°32' W 001°30'0 0.0
2018-Feb-10 00:52N 43°32' W 001°30'0 1.1
2018-Feb-10 00:30N 43°32' W 001°31'3 6.4
2018-Feb-10 00:00N 43°32' W 001°35'2 4.0
2018-Feb-09 23:30N 43°32' W 001°38'3 5.4
2018-Feb-09 23:00N 43°33' W 001°41'2 9.1
2018-Feb-09 22:46N 43°33' W 001°44'2 8.6
2018-Feb-09 22:30N 43°33' W 001°47'8 7.7
2018-Feb-09 21:30N 43°31' W 001°58'7 7.3
2018-Feb-09 20:30N 43°33' W 002°08'5 9.1
2018-Feb-09 20:00N 43°33' W 002°14'9 9.0
2018-Feb-09 19:00N 43°33' W 002°27'5 9.0
2018-Feb-09 18:30N 43°34' W 002°33'9 8.8
2018-Feb-09 17:30N 43°35' W 002°45'20 9.9
2018-Feb-09 15:30N 43°36' W 003°12'611.1
2018-Feb-09 15:00N 43°36' W 003°20'1111.1
2018-Feb-09 14:00N 43°37' W 003°35'7111.9
2018-Feb-09 08:01N 43°43' W 005°13'  
Track history (hours):
 
Tides and Currents Weather Stations Pressure Air Temp Water Temp Dewpoint Dewpoint Depression Visibility Wind Speed Wind Dir Waves Ship Positions

Sider Lijun C

Last reported at 2018-Feb-17 14:16 UTC. Time now 2018-Feb-20 04:13 UTC.
Position N 43°47' W 006°12'.

Length 108 m; draft 7.5 m.

Type: Cargo ship. MMSI: 235075699.

Date/timePositionNaut miles runAvg speedWind from/ knotsBaromVisibWave heightAir tempDewpointWater temp
2018-Feb-17 14:16N 43°47' W 006°12'3 9.5
2018-Feb-17 13:56N 43°47' W 006°08'4 9.3
2018-Feb-17 13:28N 43°46' W 006°02'4 9.2
2018-Feb-17 13:00N 43°46' W 005°56'4 9.1
2018-Feb-17 12:30N 43°45' W 005°50'4 9.0
2018-Feb-17 12:00N 43°45' W 005°43'4 8.9
2018-Feb-17 11:30N 43°45' W 005°37'5 9.2
2018-Feb-17 11:00N 43°44' W 005°31'5 9.2
2018-Feb-17 10:30N 43°44' W 005°25'5 9.2
2018-Feb-17 10:00N 43°43' W 005°18'5 9.2
2018-Feb-17 09:30N 43°43' W 005°12'5 9.1
2018-Feb-17 09:00N 43°43' W 005°06'5 9.0
2018-Feb-17 08:29N 43°42' W 004°59'49 8.6
2018-Feb-17 02:48N 43°38' W 003°52'3 8.8
2018-Feb-17 02:29N 43°38' W 003°48'4 8.7
2018-Feb-17 02:00N 43°37' W 003°43'4 8.3
2018-Feb-17 01:30N 43°37' W 003°37'4 8.2
2018-Feb-17 01:00N 43°37' W 003°31'4 8.0
2018-Feb-17 00:30N 43°37' W 003°26'6 8.3
2018-Feb-16 23:51N 43°36' W 003°18'3 8.6
2018-Feb-16 23:30N 43°36' W 003°14'5 8.9
2018-Feb-16 23:00N 43°36' W 003°08'4 8.6
2018-Feb-16 22:30N 43°35' W 003°02'4 8.7
2018-Feb-16 22:01N 43°35' W 002°56'4 8.8
2018-Feb-16 21:31N 43°35' W 002°50'5 9.1
2018-Feb-16 21:01N 43°35' W 002°44'5 9.2
2018-Feb-16 20:31N 43°34' W 002°37'5 9.1
2018-Feb-16 20:00N 43°34' W 002°31'5 9.1
2018-Feb-16 19:30N 43°34' W 002°25'5 9.2
2018-Feb-16 19:01N 43°33' W 002°19'5 9.4
2018-Feb-16 18:31N 43°33' W 002°12'5 9.3
2018-Feb-16 18:00N 43°33' W 002°06'5 9.5
2018-Feb-16 17:31N 43°33' W 001°59'5 9.6
2018-Feb-16 17:00N 43°32' W 001°53'5 9.5
2018-Feb-16 16:31N 43°32' W 001°46'5 9.4
2018-Feb-16 16:01N 43°33' W 001°39'4 8.6
2018-Feb-16 15:30N 43°32' W 001°34'3 4.3
2018-Feb-16 14:53N 43°32' W 001°30'0 0.0
2018-Feb-16 14:29N 43°32' W 001°30'0 0.0
2018-Feb-16 13:59N 43°32' W 001°30'0 0.0
2018-Feb-16 13:29N 43°32' W 001°30'0 0.0
2018-Feb-16 12:59N 43°32' W 001°30'0 0.0
2018-Feb-16 12:29N 43°32' W 001°30'0 0.0
2018-Feb-16 11:59N 43°32' W 001°30'0 0.0
2018-Feb-16 11:29N 43°32' W 001°30'0 0.0
2018-Feb-16 10:59N 43°32' W 001°30'0 0.0
2018-Feb-16 10:29N 43°32' W 001°30'0 0.0
2018-Feb-16 09:59N 43°32' W 001°30'0 0.0
2018-Feb-16 09:29N 43°32' W 001°30'0 0.0
2018-Feb-16 08:59N 43°32' W 001°30'0 0.0
2018-Feb-16 08:29N 43°32' W 001°30'0 0.0
2018-Feb-16 07:59N 43°32' W 001°30'0 0.0
2018-Feb-16 07:29N 43°32' W 001°30'0 0.0
2018-Feb-16 06:56N 43°32' W 001°30'0 0.0
2018-Feb-16 06:29N 43°32' W 001°30'0 0.0
2018-Feb-16 05:59N 43°32' W 001°30'0 0.0
2018-Feb-16 05:26N 43°32' W 001°30'0 0.0
2018-Feb-16 04:47N 43°32' W 001°30'0 0.0
2018-Feb-16 04:29N 43°32' W 001°30'0 0.0
2018-Feb-16 03:59N 43°32' W 001°30'0 0.0
2018-Feb-16 03:20N 43°32' W 001°30'0 0.0
2018-Feb-16 02:59N 43°32' W 001°30'0 0.0
2018-Feb-16 02:29N 43°32' W 001°30'0 0.0
2018-Feb-16 01:59N 43°32' W 001°30'0 0.0
2018-Feb-16 01:29N 43°32' W 001°30'0 0.0
2018-Feb-16 00:59N 43°32' W 001°30'0 0.0
2018-Feb-16 00:29N 43°32' W 001°30'0 0.0
2018-Feb-15 23:59N 43°32' W 001°30'0 0.0
2018-Feb-15 23:29N 43°32' W 001°30'0 0.0
2018-Feb-15 22:59N 43°32' W 001°30'0 0.0
2018-Feb-15 22:29N 43°32' W 001°30'0 0.0
2018-Feb-15 21:53N 43°32' W 001°30'0 0.0
2018-Feb-15 21:29N 43°32' W 001°30'0 0.0
2018-Feb-15 20:59N 43°32' W 001°30'0 0.0
2018-Feb-15 20:29N 43°32' W 001°30'0 0.0
2018-Feb-15 19:59N 43°32' W 001°30'0 0.0
2018-Feb-15 19:29N 43°32' W 001°30'0 0.0
2018-Feb-15 18:41N 43°32' W 001°30'0 0.0
2018-Feb-15 18:29N 43°32' W 001°30'0 0.0
2018-Feb-15 16:41N 43°32' W 001°30'0 0.0
2018-Feb-15 16:29N 43°32' W 001°30'0 0.0
2018-Feb-15 15:59N 43°32' W 001°30'0 0.0
2018-Feb-15 15:23N 43°32' W 001°30'0 0.0
2018-Feb-15 14:59N 43°32' W 001°30'0 0.0
2018-Feb-15 14:23N 43°32' W 001°30'0 0.0
2018-Feb-15 13:41N 43°32' W 001°30'0 0.0
2018-Feb-15 13:23N 43°32' W 001°30'0 0.0
2018-Feb-15 12:53N 43°32' W 001°30'0 0.0
2018-Feb-15 12:26N 43°32' W 001°30'0 0.0
2018-Feb-15 11:59N 43°32' W 001°30'0 0.0
2018-Feb-15 11:20N 43°32' W 001°30'0 0.0
2018-Feb-15 10:50N 43°32' W 001°30'0 0.0
2018-Feb-15 10:29N 43°32' W 001°30'0 0.0
2018-Feb-15 09:59N 43°32' W 001°30'0 0.0
2018-Feb-15 09:26N 43°32' W 001°30'0 0.0
2018-Feb-15 08:59N 43°32' W 001°30'0 0.0
2018-Feb-15 08:29N 43°32' W 001°30'0 0.0
2018-Feb-15 07:59N 43°32' W 001°30'0 0.0
2018-Feb-15 07:29N 43°32' W 001°30'0 0.0
2018-Feb-15 06:59N 43°32' W 001°30'0 0.0
2018-Feb-15 06:20N 43°32' W 001°30'0 0.0
2018-Feb-15 05:59N 43°32' W 001°30'0 0.0
2018-Feb-15 05:29N 43°32' W 001°30'0 0.0
2018-Feb-15 04:59N 43°32' W 001°30'0 0.0
2018-Feb-15 04:29N 43°32' W 001°30'0 0.0
2018-Feb-15 03:56N 43°32' W 001°30'0 0.0
2018-Feb-15 03:26N 43°32' W 001°30'0 0.0
2018-Feb-15 02:53N 43°32' W 001°30'0 0.0
2018-Feb-15 00:53N 43°32' W 001°30'0 0.0
2018-Feb-15 00:29N 43°32' W 001°30'0 0.0
2018-Feb-14 23:56N 43°32' W 001°30'0 0.0
2018-Feb-14 23:29N 43°32' W 001°30'0 0.0
2018-Feb-14 22:59N 43°32' W 001°30'0 0.0
2018-Feb-14 22:29N 43°32' W 001°30'0 0.0
2018-Feb-14 21:56N 43°32' W 001°30'0 0.0
2018-Feb-14 21:23N 43°32' W 001°30'0 0.0
2018-Feb-14 20:59N 43°32' W 001°30'0 0.0
2018-Feb-14 20:23N 43°32' W 001°30'0 0.0
2018-Feb-14 19:59N 43°32' W 001°30'0 0.0
2018-Feb-14 19:29N 43°32' W 001°30'0 0.0
2018-Feb-14 18:59N 43°32' W 001°30'0 0.0
2018-Feb-14 18:26N 43°32' W 001°30'0 0.0
2018-Feb-14 17:59N 43°32' W 001°30'0 0.0
2018-Feb-14 17:29N 43°32' W 001°30'0 0.0
2018-Feb-14 16:59N 43°32' W 001°30'0 0.0
2018-Feb-14 16:29N 43°32' W 001°30'0 0.0
2018-Feb-14 15:59N 43°32' W 001°30'0 0.0
2018-Feb-14 15:29N 43°32' W 001°30'0 0.0
2018-Feb-14 14:50N 43°32' W 001°30'0 0.0
2018-Feb-14 14:26N 43°32' W 001°30'0 0.0
2018-Feb-14 13:56N 43°32' W 001°30'0 0.0
2018-Feb-14 13:29N 43°32' W 001°30'0 0.0
2018-Feb-14 12:59N 43°32' W 001°30'0 0.0
2018-Feb-14 12:29N 43°32' W 001°30'0 0.0
2018-Feb-14 11:59N 43°32' W 001°30'0 0.0
2018-Feb-14 11:29N 43°32' W 001°30'0 0.0
2018-Feb-14 10:59N 43°32' W 001°30'0 0.0
2018-Feb-14 10:23N 43°32' W 001°30'0 1.0
2018-Feb-14 10:01N 43°32' W 001°31'4 7.8
2018-Feb-14 09:31N 43°33' W 001°36'5 9.0
2018-Feb-14 09:01N 43°33' W 001°42'5 9.0
2018-Feb-14 08:30N 43°33' W 001°48'4 7.7
2018-Feb-14 08:01N 43°33' W 001°54'4 8.2
2018-Feb-14 07:31N 43°33' W 001°59'4 8.2
2018-Feb-14 07:01N 43°33' W 002°05'4 8.6
2018-Feb-14 06:30N 43°33' W 002°11'4 8.5
2018-Feb-14 06:00N 43°33' W 002°17'4 8.0
2018-Feb-14 05:31N 43°34' W 002°22'4 7.9
2018-Feb-14 05:01N 43°34' W 002°28'4 8.0
2018-Feb-14 04:31N 43°34' W 002°33'4 8.5
2018-Feb-14 04:01N 43°35' W 002°39'5 9.0
2018-Feb-14 03:30N 43°35' W 002°45'4 8.7
2018-Feb-14 03:00N 43°36' W 002°51'5 8.5
2018-Feb-14 02:26N 43°36' W 002°58'3 8.1
2018-Feb-14 02:00N 43°37' W 003°02'4 8.1
2018-Feb-14 01:30N 43°37' W 003°08'4 8.2
2018-Feb-14 01:00N 43°37' W 003°14'8 8.9
2018-Feb-14 00:08N 43°37' W 003°24'1 8.1
2018-Feb-14 00:00N 43°37' W 003°26'4 7.8
2018-Feb-13 23:31N 43°37' W 003°31'4 8.2
2018-Feb-13 23:01N 43°37' W 003°37'4 8.4
2018-Feb-13 22:30N 43°37' W 003°43'49 8.1
2018-Feb-13 16:26N 43°41' W 004°50'3 8.1
2018-Feb-13 16:00N 43°42' W 004°55'4 7.9
2018-Feb-13 15:30N 43°42' W 005°01'4 8.0
2018-Feb-13 15:00N 43°43' W 005°06'4 8.2
2018-Feb-13 14:30N 43°43' W 005°12'4 8.2
2018-Feb-13 14:00N 43°43' W 005°18'510.5
2018-Feb-13 13:30N 43°44' W 005°25'611.7
2018-Feb-13 13:00N 43°44' W 005°33'1011.7
2018-Feb-13 12:09N 43°45' W 005°46'211.7
2018-Feb-13 11:58N 43°45' W 005°49'811.6
2018-Feb-13 11:18N 43°46' W 006°00'411.9
2018-Feb-13 10:58N 43°46' W 006°05'611.7
2018-Feb-13 10:29N 43°47' W 006°13'3 0.1
2018-Feb-11 20:31N 43°46' W 006°10'2 7.0
2018-Feb-11 20:18N 43°46' W 006°08'2 7.3
2018-Feb-11 19:58N 43°46' W 006°04'4 7.3
2018-Feb-11 19:29N 43°46' W 005°59'3 7.1
2018-Feb-11 19:00N 43°45' W 005°55'4 7.1
2018-Feb-11 18:30N 43°45' W 005°50'4 7.2
2018-Feb-11 18:00N 43°45' W 005°45'4 7.4
2018-Feb-11 17:31N 43°45' W 005°40'4 7.5
2018-Feb-11 17:01N 43°44' W 005°35'4 7.6
2018-Feb-11 16:29N 43°44' W 005°29'4 8.1
2018-Feb-11 16:01N 43°44' W 005°24'5 8.0
2018-Feb-11 15:21N 43°43' W 005°17'3 8.1
2018-Feb-11 14:57N 43°43' W 005°12'54 8.0
2018-Feb-11 08:07N 43°38' W 003°57'1 7.8
2018-Feb-11 08:00N 43°38' W 003°56'3 7.1
2018-Feb-11 07:30N 43°38' W 003°51'3 6.6
2018-Feb-11 07:00N 43°38' W 003°47'3 6.2
2018-Feb-11 06:31N 43°37' W 003°42'3 6.3
2018-Feb-11 06:00N 43°37' W 003°38'3 6.1
2018-Feb-11 05:31N 43°37' W 003°34'3 5.9
2018-Feb-11 05:00N 43°37' W 003°30'3 6.2
2018-Feb-11 04:31N 43°36' W 003°25'4 7.1
2018-Feb-11 04:01N 43°36' W 003°21'4 8.0
2018-Feb-11 03:30N 43°36' W 003°15'4 8.0
2018-Feb-11 03:01N 43°36' W 003°10'4 8.0
2018-Feb-11 02:31N 43°36' W 003°04'4 8.0
2018-Feb-11 02:01N 43°35' W 002°59'4 8.4
2018-Feb-11 01:30N 43°35' W 002°53'4 8.4
2018-Feb-11 01:01N 43°35' W 002°47'4 8.5
2018-Feb-11 00:31N 43°35' W 002°41'4 8.3
2018-Feb-11 00:00N 43°34' W 002°35'4 8.2
2018-Feb-10 23:30N 43°34' W 002°30'4 8.3
2018-Feb-10 23:01N 43°34' W 002°24'4 8.4
2018-Feb-10 22:30N 43°33' W 002°18'4 8.8
2018-Feb-10 22:01N 43°33' W 002°12'4 9.0
2018-Feb-10 21:30N 43°33' W 002°06'5 9.1
2018-Feb-10 21:01N 43°33' W 001°60'5 9.4
2018-Feb-10 20:31N 43°33' W 001°53'5 9.2
2018-Feb-10 19:59N 43°33' W 001°47'5 9.5
2018-Feb-10 19:31N 43°32' W 001°40'5 9.3
2018-Feb-10 19:01N 43°32' W 001°34'3 5.4
2018-Feb-10 18:28N 43°32' W 001°30'0 0.0
2018-Feb-10 17:31N 43°32' W 001°30'0 0.0
2018-Feb-10 17:25N 43°32' W 001°30'0 0.0
2018-Feb-10 16:58N 43°32' W 001°30'0 0.0
2018-Feb-10 16:28N 43°32' W 001°30'0 0.0
2018-Feb-10 15:58N 43°32' W 001°30'0 0.0
2018-Feb-10 15:25N 43°32' W 001°30'0 0.0
2018-Feb-10 14:49N 43°32' W 001°30'0 0.0
2018-Feb-10 14:28N 43°32' W 001°30'0 0.0
2018-Feb-10 13:58N 43°32' W 001°30'0 0.0
2018-Feb-10 13:28N 43°32' W 001°30'0 0.0
2018-Feb-10 12:58N 43°32' W 001°30'0 0.0
2018-Feb-10 12:28N 43°32' W 001°30'0 0.0
2018-Feb-10 11:58N 43°32' W 001°30'0 0.0
2018-Feb-10 11:28N 43°32' W 001°30'0 0.0
2018-Feb-10 10:58N 43°32' W 001°30'0 0.0
2018-Feb-10 10:28N 43°32' W 001°30'0 0.0
2018-Feb-10 09:58N 43°32' W 001°30'0 0.0
2018-Feb-10 09:25N 43°32' W 001°30'0 0.0
2018-Feb-10 08:58N 43°32' W 001°30'0 0.0
2018-Feb-10 08:28N 43°32' W 001°30'0 0.0
2018-Feb-10 07:58N 43°32' W 001°30'0 0.0
2018-Feb-10 07:28N 43°32' W 001°30'0 0.0
2018-Feb-10 06:58N 43°32' W 001°30'0 0.0
2018-Feb-10 06:28N 43°32' W 001°30'0 0.0
2018-Feb-10 05:58N 43°32' W 001°30'0 0.0
2018-Feb-10 05:28N 43°32' W 001°30'0 0.0
2018-Feb-10 04:58N 43°32' W 001°30'0 0.0
2018-Feb-10 04:28N 43°32' W 001°30'0 0.0
2018-Feb-10 03:55N 43°32' W 001°30'0 0.0
2018-Feb-10 03:28N 43°32' W 001°30'0 0.0
2018-Feb-10 02:58N 43°32' W 001°30'0 0.0
2018-Feb-10 02:28N 43°32' W 001°30'0 0.0
2018-Feb-10 01:58N 43°32' W 001°30'0 0.0
2018-Feb-10 01:28N 43°32' W 001°30'0 0.0
2018-Feb-10 00:52N 43°32' W 001°30'0 1.1
2018-Feb-10 00:30N 43°32' W 001°31'3 6.4
2018-Feb-10 00:00N 43°32' W 001°35'2 4.0
2018-Feb-09 23:30N 43°32' W 001°38'3 5.4
2018-Feb-09 23:00N 43°33' W 001°41'2 9.1
2018-Feb-09 22:46N 43°33' W 001°44'2 8.6
2018-Feb-09 22:30N 43°33' W 001°47'8 7.7
2018-Feb-09 21:30N 43°31' W 001°58'7 7.3
2018-Feb-09 20:30N 43°33' W 002°08'5 9.1
2018-Feb-09 20:00N 43°33' W 002°14'9 9.0
2018-Feb-09 19:00N 43°33' W 002°27'5 9.0
2018-Feb-09 18:30N 43°34' W 002°33'9 8.8
2018-Feb-09 17:30N 43°35' W 002°45'20 9.9
2018-Feb-09 15:30N 43°36' W 003°12'611.1
2018-Feb-09 15:00N 43°36' W 003°20'1111.1
2018-Feb-09 14:00N 43°37' W 003°35'7111.9
2018-Feb-09 08:01N 43°43' W 005°13'  

Dump ship's entire track history